createdAt,value
2022-12-23T00:00:26.809Z,97330.94
2022-12-23T00:02:53.335Z,97333.44
2022-12-23T00:05:19.853Z,97330.19
2022-12-23T00:07:46.348Z,97321.56
2022-12-23T00:10:12.746Z,97322.59
2022-12-23T00:12:57.627Z,97314.38
2022-12-23T00:15:24.042Z,97316.25
2022-12-23T00:17:50.443Z,97311.81
2022-12-23T00:20:16.792Z,97313.28
2022-12-23T00:23:01.855Z,97312.03
2022-12-23T00:25:40.602Z,97309.53
2022-12-23T00:28:11.746Z,97304.69
2022-12-23T00:30:47.000Z,97306.00
2022-12-23T00:33:15.392Z,97293.81
2022-12-23T00:35:42.938Z,97292.03
2022-12-23T00:38:09.318Z,97294.28
2022-12-23T00:40:58.968Z,97277.03
2022-12-23T00:43:25.733Z,97271.69
2022-12-23T00:45:52.176Z,97270.38
2022-12-23T00:48:37.354Z,97266.13
2022-12-23T00:51:03.748Z,97268.00
2022-12-23T00:53:30.115Z,97271.91
2022-12-23T00:55:56.446Z,97262.13
2022-12-23T00:58:22.814Z,97254.19
2022-12-23T01:01:07.938Z,97260.03
2022-12-23T01:03:52.827Z,97260.75
2022-12-23T01:06:19.208Z,97254.88
2022-12-23T01:08:45.572Z,97250.19
2022-12-23T01:11:12.994Z,97252.22
2022-12-23T01:13:39.835Z,97255.47
2022-12-23T01:16:15.015Z,97251.47
2022-12-23T01:18:43.799Z,97255.56
2022-12-23T01:21:10.852Z,97244.66
2022-12-23T01:23:37.469Z,97249.59
2022-12-23T01:26:06.269Z,97252.78
2022-12-23T01:28:33.530Z,97242.66
2022-12-23T01:31:05.280Z,97242.25
2022-12-23T01:33:33.081Z,97237.94
2022-12-23T01:36:01.223Z,97232.56
2022-12-23T01:38:27.681Z,97225.75
2022-12-23T01:40:54.402Z,97230.72
2022-12-23T01:43:21.181Z,97229.91
2022-12-23T01:45:47.611Z,97222.56
2022-12-23T01:48:22.562Z,97225.00
2022-12-23T01:50:56.001Z,97219.31
2022-12-23T01:53:35.317Z,97211.75
2022-12-23T01:56:11.490Z,97224.44
2022-12-23T01:58:41.912Z,97214.78
2022-12-23T02:01:28.383Z,97211.09
2022-12-23T02:03:59.576Z,97207.84
2022-12-23T02:06:59.479Z,97219.41
2022-12-23T02:09:32.713Z,97228.44
2022-12-23T02:12:13.655Z,97216.78
2022-12-23T02:15:23.749Z,97221.75
2022-12-23T02:17:55.920Z,97224.94
2022-12-23T02:21:07.562Z,97223.41
2022-12-23T02:24:03.188Z,97218.44
2022-12-23T02:26:51.905Z,97217.25
2022-12-23T02:29:32.372Z,97220.97
2022-12-23T02:32:11.200Z,97217.84
2022-12-23T02:34:54.655Z,97215.47
2022-12-23T02:38:07.739Z,97215.88
2022-12-23T02:40:40.788Z,97207.06
2022-12-23T02:43:18.710Z,97210.31
2022-12-23T02:45:56.444Z,97216.50
2022-12-23T02:48:31.944Z,97208.13
2022-12-23T02:51:00.130Z,97204.91
2022-12-23T02:53:34.856Z,97206.72
2022-12-23T02:56:06.467Z,97202.97
2022-12-23T02:58:40.134Z,97207.28
2022-12-23T03:01:07.311Z,97214.97
2022-12-23T03:03:35.475Z,97205.44
2022-12-23T03:06:02.641Z,97208.63
2022-12-23T03:08:34.341Z,97202.03
2022-12-23T03:11:10.576Z,97204.56
2022-12-23T03:14:03.733Z,97197.34
2022-12-23T03:16:58.612Z,97202.19
2022-12-23T03:19:39.994Z,97190.91
2022-12-23T03:22:09.350Z,97193.03
2022-12-23T03:24:53.107Z,97200.16
2022-12-23T03:27:33.473Z,97192.03
2022-12-23T03:30:04.595Z,97195.13
2022-12-23T03:32:35.473Z,97192.91
2022-12-23T03:35:04.154Z,97191.78
2022-12-23T03:37:33.568Z,97190.31
2022-12-23T03:40:16.036Z,97195.22
2022-12-23T03:42:46.770Z,97199.28
2022-12-23T03:45:38.558Z,97204.63
2022-12-23T03:48:13.509Z,97197.56
2022-12-23T03:50:42.768Z,97190.13
2022-12-23T03:53:37.507Z,97186.66
2022-12-23T03:56:11.484Z,97189.44
2022-12-23T03:58:47.953Z,97190.13
2022-12-23T04:01:27.347Z,97182.03
2022-12-23T04:04:15.708Z,97181.38
2022-12-23T04:06:51.848Z,97187.25
2022-12-23T04:09:22.207Z,97186.13
2022-12-23T04:11:49.545Z,97195.84
2022-12-23T04:14:20.243Z,97195.19
2022-12-23T04:16:47.860Z,97202.38
2022-12-23T04:19:14.184Z,97209.53
2022-12-23T04:21:40.566Z,97196.13
2022-12-23T04:24:07.073Z,97187.19
2022-12-23T04:26:33.447Z,97189.59
2022-12-23T04:28:59.782Z,97184.94
2022-12-23T04:31:26.193Z,97191.19
2022-12-23T04:33:52.589Z,97201.22
2022-12-23T04:36:18.941Z,97194.50
2022-12-23T04:38:45.271Z,97192.53
2022-12-23T04:41:11.617Z,97196.72
2022-12-23T04:43:37.949Z,97183.22
2022-12-23T04:46:04.416Z,97194.38
2022-12-23T04:48:30.768Z,97191.44
2022-12-23T04:50:57.093Z,97196.97
2022-12-23T04:53:23.496Z,97192.19
2022-12-23T04:55:51.314Z,97192.66
2022-12-23T04:58:17.854Z,97180.53
2022-12-23T05:00:44.277Z,97186.75
2022-12-23T05:03:10.737Z,97182.03
2022-12-23T05:05:43.795Z,97195.25
2022-12-23T05:08:10.167Z,97194.44
2022-12-23T05:10:36.505Z,97190.50
2022-12-23T05:13:02.858Z,97184.53
2022-12-23T05:15:30.629Z,97188.28
2022-12-23T05:17:56.990Z,97189.25
2022-12-23T05:20:23.420Z,97192.50
2022-12-23T05:22:49.760Z,97185.78
2022-12-23T05:25:16.098Z,97191.56
2022-12-23T05:27:42.462Z,97195.44
2022-12-23T05:30:09.421Z,97200.16
2022-12-23T05:32:36.282Z,97191.84
2022-12-23T05:35:02.697Z,97186.47
2022-12-23T05:37:29.067Z,97186.88
2022-12-23T05:39:55.404Z,97186.59
2022-12-23T05:42:21.744Z,97180.00
2022-12-23T05:44:48.086Z,97186.84
2022-12-23T05:47:14.508Z,97196.84
2022-12-23T05:49:40.837Z,97196.72
2022-12-23T05:52:07.168Z,97199.16
2022-12-23T05:54:33.480Z,97197.09
2022-12-23T05:56:59.861Z,97205.81
2022-12-23T05:59:30.747Z,97189.19
2022-12-23T06:01:57.704Z,97194.72
2022-12-23T06:04:24.265Z,97196.66
2022-12-23T06:06:50.700Z,97206.69
2022-12-23T06:09:17.029Z,97204.56
2022-12-23T06:11:43.408Z,97199.63
2022-12-23T06:14:10.228Z,97199.38
2022-12-23T06:16:37.837Z,97197.59
2022-12-23T06:19:04.193Z,97211.44
2022-12-23T06:21:30.659Z,97202.53
2022-12-23T06:23:56.987Z,97217.31
2022-12-23T06:26:23.720Z,97212.97
2022-12-23T06:28:50.140Z,97218.94
2022-12-23T06:31:16.673Z,97229.72
2022-12-23T06:33:43.155Z,97224.13
2022-12-23T06:36:09.664Z,97231.28
2022-12-23T06:38:36.059Z,97233.53
2022-12-23T06:41:02.394Z,97236.75
2022-12-23T06:43:28.771Z,97236.34
2022-12-23T06:45:55.353Z,97247.38
2022-12-23T06:48:21.766Z,97241.97
2022-12-23T06:50:48.079Z,97241.50
2022-12-23T06:53:14.457Z,97243.41
2022-12-23T06:55:40.789Z,97250.59
2022-12-23T06:58:07.171Z,97243.28
2022-12-23T07:00:33.525Z,97258.97
2022-12-23T07:02:59.945Z,97258.19
2022-12-23T07:05:28.587Z,97266.56
2022-12-23T07:07:59.704Z,97257.56
2022-12-23T07:10:26.028Z,97264.91
2022-12-23T07:12:52.415Z,97258.78
2022-12-23T07:15:18.773Z,97259.41
2022-12-23T07:17:45.147Z,97253.00
2022-12-23T07:20:13.478Z,97254.41
2022-12-23T07:22:39.836Z,97252.16
2022-12-23T07:25:06.746Z,97255.31
2022-12-23T07:27:33.101Z,97268.16
2022-12-23T07:29:59.470Z,97262.63
2022-12-23T07:32:25.857Z,97262.00
2022-12-23T07:34:52.254Z,97267.44
2022-12-23T07:37:18.620Z,97277.56
2022-12-23T07:39:45.020Z,97274.59
2022-12-23T07:44:57.735Z,97268.16
2022-12-23T07:47:24.116Z,97276.59
2022-12-23T07:49:50.502Z,97275.03
2022-12-23T07:52:17.110Z,97271.44
2022-12-23T07:54:43.684Z,97274.06
2022-12-23T07:57:10.035Z,97278.16
2022-12-23T07:59:36.584Z,97276.59
2022-12-23T08:02:03.106Z,97275.91
2022-12-23T08:04:29.667Z,97277.03
2022-12-23T08:06:56.166Z,97280.22
2022-12-23T08:09:22.528Z,97282.41
2022-12-23T08:11:48.884Z,97282.53
2022-12-23T08:14:15.247Z,97278.84
2022-12-23T08:16:44.253Z,97284.06
2022-12-23T08:19:10.705Z,97293.50
2022-12-23T08:21:37.078Z,97288.81
2022-12-23T08:24:03.585Z,97285.69
2022-12-23T08:26:29.917Z,97288.56
2022-12-23T08:28:56.305Z,97290.03
2022-12-23T08:31:27.693Z,97289.63
2022-12-23T08:33:56.364Z,97285.63
2022-12-23T08:36:25.564Z,97290.53
2022-12-23T08:38:54.579Z,97289.44
2022-12-23T08:41:25.141Z,97291.63
2022-12-23T08:43:51.977Z,97299.84
2022-12-23T08:46:18.751Z,97303.31
2022-12-23T08:48:49.356Z,97300.53
2022-12-23T08:51:17.788Z,97304.50
2022-12-23T08:53:44.909Z,97304.22
2022-12-23T08:56:18.381Z,97308.28
2022-12-23T08:58:46.911Z,97306.09
2022-12-23T09:01:15.955Z,97314.09
2022-12-23T09:03:43.432Z,97312.22
2022-12-23T09:06:11.332Z,97311.81
2022-12-23T09:08:38.366Z,97303.72
2022-12-23T09:11:05.070Z,97314.59
2022-12-23T09:13:35.686Z,97312.47
2022-12-23T09:16:03.396Z,97318.78
2022-12-23T09:18:29.950Z,97317.03
2022-12-23T09:20:58.741Z,97311.66
2022-12-23T09:23:25.196Z,97324.63
2022-12-23T09:25:51.624Z,97324.31
2022-12-23T09:28:17.989Z,97319.94
2022-12-23T09:30:44.333Z,97319.88
2022-12-23T09:33:11.879Z,97319.50
2022-12-23T09:35:41.161Z,97316.50
2022-12-23T09:38:08.319Z,97317.03
2022-12-23T09:40:37.219Z,97322.84
2022-12-23T09:43:12.671Z,97324.72
2022-12-23T09:45:52.335Z,97321.13
2022-12-23T09:48:22.366Z,97316.06
2022-12-23T09:51:06.688Z,97321.03
2022-12-23T09:54:02.871Z,97326.19
2022-12-23T09:56:51.525Z,97328.03
2022-12-23T09:59:40.776Z,97328.88
2022-12-23T10:02:28.421Z,97335.75
2022-12-23T10:05:11.297Z,97332.91
2022-12-23T10:07:41.392Z,97348.91
2022-12-23T10:10:26.434Z,97334.44
2022-12-23T10:13:06.955Z,97340.03
2022-12-23T10:15:48.457Z,97336.34
2022-12-23T10:18:26.200Z,97339.00
2022-12-23T10:21:04.184Z,97329.84
2022-12-23T10:23:38.301Z,97333.50
2022-12-23T10:26:20.032Z,97327.03
2022-12-23T10:28:46.764Z,97339.03
2022-12-23T10:31:41.657Z,97335.47
2022-12-23T10:34:22.712Z,97343.13
2022-12-23T10:36:58.880Z,97332.50
2022-12-23T10:39:45.417Z,97338.31
2022-12-23T10:42:34.098Z,97335.31
2022-12-23T10:45:15.421Z,97339.59
2022-12-23T10:48:21.549Z,97337.56
2022-12-23T10:50:53.707Z,97332.38
2022-12-23T10:53:32.998Z,97337.53
2022-12-23T10:56:05.561Z,97327.75
2022-12-23T10:58:55.447Z,97318.66
2022-12-23T11:01:26.985Z,97312.72
2022-12-23T11:04:09.057Z,97310.63
2022-12-23T11:06:55.836Z,97321.97
2022-12-23T11:09:53.023Z,97310.75
2022-12-23T11:12:47.758Z,97311.44
2022-12-23T11:15:47.722Z,97328.88
2022-12-23T11:18:23.487Z,97323.88
2022-12-23T11:21:19.479Z,97323.16
2022-12-23T11:23:53.102Z,97324.59
2022-12-23T11:26:20.233Z,97329.22
2022-12-23T11:28:51.034Z,97332.50
2022-12-23T11:31:37.541Z,97335.09
2022-12-23T11:34:10.689Z,97335.41
2022-12-23T11:36:43.877Z,97342.66
2022-12-23T11:39:10.282Z,97343.41
2022-12-23T11:41:47.799Z,97343.91
2022-12-23T11:44:38.697Z,97346.72
2022-12-23T11:47:39.070Z,97353.53
2022-12-23T11:50:39.571Z,97357.28
2022-12-23T11:53:20.681Z,97351.53
2022-12-23T11:56:30.201Z,97356.59
2022-12-23T11:59:07.568Z,97355.81
2022-12-23T12:01:34.726Z,97349.34
2022-12-23T12:04:12.393Z,97354.19
2022-12-23T12:06:56.973Z,97360.03
2022-12-23T12:09:26.058Z,97362.56
2022-12-23T12:12:36.845Z,97359.00
2022-12-23T12:15:04.254Z,97358.19
2022-12-23T12:17:39.817Z,97357.38
2022-12-23T12:20:35.658Z,97357.53
2022-12-23T12:23:27.008Z,97359.31
2022-12-23T12:26:11.884Z,97349.25
2022-12-23T12:28:48.696Z,97342.72
2022-12-23T12:31:35.100Z,97345.69
2022-12-23T12:34:05.694Z,97348.97
2022-12-23T12:37:07.962Z,97350.44
2022-12-23T12:39:41.241Z,97350.81
2022-12-23T12:42:32.704Z,97341.81
2022-12-23T12:45:11.918Z,97341.75
2022-12-23T12:47:55.756Z,97344.97
2022-12-23T12:50:30.455Z,97344.16
2022-12-23T12:53:01.991Z,97356.50
2022-12-23T12:55:33.255Z,97351.50
2022-12-23T12:58:02.709Z,97346.50
2022-12-23T13:00:48.149Z,97345.75
2022-12-23T13:03:41.469Z,97341.41
2022-12-23T13:06:24.602Z,97343.56
2022-12-23T13:08:58.651Z,97345.63
2022-12-23T13:11:44.945Z,97342.03
2022-12-23T13:14:49.452Z,97348.81
2022-12-23T13:17:28.845Z,97348.06
2022-12-23T13:20:15.886Z,97351.66
2022-12-23T13:22:45.278Z,97339.72
2022-12-23T13:25:27.911Z,97340.84
2022-12-23T13:27:58.005Z,97344.00
2022-12-23T13:30:28.223Z,97342.13
2022-12-23T13:33:12.084Z,97351.91
2022-12-23T13:36:06.788Z,97350.47
2022-12-23T13:38:54.398Z,97334.47
2022-12-23T13:41:42.496Z,97337.66
2022-12-23T13:44:10.711Z,97332.94
2022-12-23T13:47:01.523Z,97333.66
2022-12-23T13:49:52.858Z,97333.19
2022-12-23T13:52:28.179Z,97332.81
2022-12-23T13:55:16.336Z,97335.31
2022-12-23T13:58:10.548Z,97332.06
2022-12-23T14:00:37.045Z,97323.38
2022-12-23T14:03:05.878Z,97328.06
2022-12-23T14:05:40.809Z,97327.06
2022-12-23T14:08:19.222Z,97319.84
2022-12-23T14:11:11.569Z,97323.41
2022-12-23T14:13:51.409Z,97319.44
2022-12-23T14:16:37.295Z,97316.59
2022-12-23T14:19:18.772Z,97313.25
2022-12-23T14:22:27.459Z,97316.44
2022-12-23T14:25:23.502Z,97317.78
2022-12-23T14:27:57.116Z,97312.66
2022-12-23T14:30:41.251Z,97314.44
2022-12-23T14:33:23.513Z,97320.91
2022-12-23T14:36:13.134Z,97323.41
2022-12-23T14:38:41.623Z,97334.31
2022-12-23T14:41:41.257Z,97317.97
2022-12-23T14:44:50.710Z,97321.56
2022-12-23T14:47:33.028Z,97318.00
2022-12-23T14:50:38.696Z,97328.13
2022-12-23T14:53:21.692Z,97329.13
2022-12-23T14:55:52.183Z,97328.38
2022-12-23T14:58:22.300Z,97326.88
2022-12-23T15:01:00.491Z,97330.47
2022-12-23T15:03:33.537Z,97318.16
2022-12-23T15:06:05.080Z,97317.75
2022-12-23T15:08:50.659Z,97311.56
2022-12-23T15:11:28.275Z,97310.09
2022-12-23T15:13:59.701Z,97308.63
2022-12-23T15:16:36.737Z,97311.47
2022-12-23T15:19:27.546Z,97313.59
2022-12-23T15:22:20.614Z,97321.22
2022-12-23T15:24:49.009Z,97322.28
2022-12-23T15:27:26.975Z,97324.13
2022-12-23T15:29:54.524Z,97326.03
2022-12-23T15:32:23.728Z,97322.34
2022-12-23T15:34:51.990Z,97320.44
2022-12-23T15:37:27.528Z,97320.06
2022-12-23T15:40:03.463Z,97325.13
2022-12-23T15:42:38.889Z,97342.78
2022-12-23T15:45:39.185Z,97336.94
2022-12-23T15:48:21.739Z,97322.47
2022-12-23T15:50:51.479Z,97321.69
2022-12-23T15:53:19.150Z,97323.50
2022-12-23T15:55:47.757Z,97305.03
2022-12-23T15:58:27.596Z,97296.78
2022-12-23T16:00:59.942Z,97295.63
2022-12-23T16:03:41.866Z,97308.94
2022-12-23T16:09:36.098Z,97306.69
2022-12-23T16:12:19.392Z,97303.97
2022-12-23T16:14:54.205Z,97302.81
2022-12-23T16:17:34.655Z,97296.69
2022-12-23T16:20:20.433Z,97311.78
2022-12-23T16:22:50.299Z,97301.97
2022-12-23T16:25:27.471Z,97301.59
2022-12-23T16:28:24.516Z,97299.69
2022-12-23T16:30:56.600Z,97305.34
2022-12-23T16:33:45.124Z,97305.97
2022-12-23T16:36:26.806Z,97300.88
2022-12-23T16:39:09.190Z,97292.16
2022-12-23T16:41:36.118Z,97293.16
2022-12-23T16:44:08.335Z,97289.53
2022-12-23T16:46:49.185Z,97295.75
2022-12-23T16:49:20.460Z,97297.72
2022-12-23T16:51:47.457Z,97289.84
2022-12-23T16:54:17.677Z,97287.91
2022-12-23T17:00:21.044Z,97276.31
2022-12-23T17:03:21.667Z,97282.34
2022-12-23T17:06:30.591Z,97283.41
2022-12-23T17:08:59.146Z,97272.56
2022-12-23T17:11:35.019Z,97258.09
2022-12-23T17:14:05.637Z,97266.03
2022-12-23T17:16:33.268Z,97267.81
2022-12-23T17:19:02.273Z,97269.38
2022-12-23T17:21:32.681Z,97276.22
2022-12-23T17:24:16.893Z,97263.13
2022-12-23T17:26:43.288Z,97264.56
2022-12-23T17:29:12.950Z,97266.53
2022-12-23T17:31:41.261Z,97249.91
2022-12-23T17:34:11.785Z,97247.72
2022-12-23T17:36:41.914Z,97235.09
2022-12-23T17:39:11.137Z,97237.97
2022-12-23T17:41:40.815Z,97232.38
2022-12-23T17:44:10.145Z,97227.25
2022-12-23T17:46:36.779Z,97234.06
2022-12-23T17:49:03.577Z,97221.72
2022-12-23T17:51:30.204Z,97212.97
2022-12-23T17:53:58.318Z,97212.19
2022-12-23T17:56:29.565Z,97215.41
2022-12-23T17:58:56.013Z,97213.03
2022-12-23T18:01:32.931Z,97201.41
2022-12-23T18:04:00.271Z,97207.41
2022-12-23T18:06:28.318Z,97206.47
2022-12-23T18:08:57.161Z,97206.34
2022-12-23T18:11:33.003Z,97209.22
2022-12-23T18:13:59.842Z,97203.44
2022-12-23T18:16:26.479Z,97197.06
2022-12-23T18:19:20.992Z,97191.34
2022-12-23T18:21:54.078Z,97179.72
2022-12-23T18:27:41.608Z,97183.13
2022-12-23T18:30:47.378Z,97185.25
2022-12-23T18:33:53.837Z,97191.53
2022-12-23T18:36:59.200Z,97197.22
2022-12-23T18:39:40.554Z,97189.19
2022-12-23T18:42:19.436Z,97194.47
2022-12-23T18:45:15.552Z,97191.28
2022-12-23T18:47:42.578Z,97195.84
2022-12-23T18:50:27.680Z,97200.56
2022-12-23T18:53:58.178Z,97196.22
2022-12-23T18:56:27.458Z,97195.53
2022-12-23T19:02:05.073Z,97197.31
2022-12-23T19:04:31.728Z,97185.25
2022-12-23T19:06:58.343Z,97184.59
2022-12-23T19:09:25.222Z,97191.44
2022-12-23T19:11:53.299Z,97193.47
2022-12-23T19:14:19.924Z,97199.03
2022-12-23T19:16:51.592Z,97201.84
2022-12-23T19:19:19.521Z,97191.44
2022-12-23T19:21:46.108Z,97189.97
2022-12-23T19:24:12.605Z,97192.41
2022-12-23T19:26:39.164Z,97178.63
2022-12-23T19:29:05.603Z,97171.47
2022-12-23T19:31:34.102Z,97166.06
2022-12-23T19:34:01.081Z,97157.66
2022-12-23T19:36:27.925Z,97151.19
2022-12-23T19:38:56.225Z,97150.06
2022-12-23T19:41:22.794Z,97145.59
2022-12-23T19:43:49.525Z,97144.47
2022-12-23T19:46:17.244Z,97137.66
2022-12-23T19:48:48.967Z,97131.09
2022-12-23T19:51:15.368Z,97132.72
2022-12-23T19:53:42.314Z,97123.22
2022-12-23T19:56:13.160Z,97122.84
2022-12-23T19:58:42.217Z,97116.38
2022-12-23T20:01:10.641Z,97107.25
2022-12-23T20:03:37.984Z,97107.44
2022-12-23T20:06:06.092Z,97097.34
2022-12-23T20:08:33.657Z,97101.97
2022-12-23T20:11:03.949Z,97089.31
2022-12-23T20:13:30.499Z,97073.38
2022-12-23T20:15:56.949Z,97063.53
2022-12-23T20:18:23.435Z,97071.47
2022-12-23T20:20:49.829Z,97067.22
2022-12-23T20:23:16.236Z,97051.38
2022-12-23T20:25:42.678Z,97048.16
2022-12-23T20:28:09.211Z,97045.97
2022-12-23T20:30:35.637Z,97033.78
2022-12-23T20:33:02.067Z,97028.03
2022-12-23T20:35:30.283Z,97030.50
2022-12-23T20:37:56.740Z,97029.81
2022-12-23T20:40:23.131Z,97022.22
2022-12-23T20:42:49.578Z,97017.13
2022-12-23T20:45:16.051Z,97016.75
2022-12-23T20:47:42.535Z,97026.09
2022-12-23T20:50:09.429Z,97022.84
2022-12-23T20:52:35.910Z,97022.94
2022-12-23T20:55:02.313Z,97025.53
2022-12-23T20:57:28.721Z,97030.91
2022-12-23T20:59:55.096Z,97032.97
2022-12-23T21:02:21.674Z,97037.38
2022-12-23T21:04:48.173Z,97033.44
2022-12-23T21:07:14.662Z,97027.59
2022-12-23T21:09:41.153Z,97014.28
2022-12-23T21:12:07.824Z,97023.31
2022-12-23T21:14:34.381Z,97036.63
2022-12-23T21:17:00.980Z,97039.84
2022-12-23T21:19:27.914Z,97045.72
2022-12-23T21:21:54.615Z,97046.09
2022-12-23T21:24:21.360Z,97047.53
2022-12-23T21:26:55.432Z,97040.31
2022-12-23T21:29:23.346Z,97027.59
2022-12-23T21:31:49.935Z,97020.06
2022-12-23T21:34:16.549Z,97016.75
2022-12-23T21:36:43.373Z,97023.59
2022-12-23T21:39:16.437Z,97018.28
2022-12-23T21:41:43.136Z,97023.31
2022-12-23T21:44:13.589Z,97013.94
2022-12-23T21:46:40.303Z,97014.63
2022-12-23T21:49:06.911Z,97010.66
2022-12-23T21:51:40.011Z,97015.34
2022-12-23T21:54:08.572Z,97006.34
2022-12-23T21:56:35.238Z,97007.78
2022-12-23T21:59:05.018Z,97003.09
2022-12-23T22:01:32.384Z,96995.91
2022-12-23T22:03:59.551Z,96992.97
2022-12-23T22:06:32.128Z,96998.16
2022-12-23T22:08:59.326Z,96997.75
2022-12-23T22:11:30.039Z,96995.56
2022-12-23T22:13:58.146Z,97002.50
2022-12-23T22:16:26.707Z,96996.63
2022-12-23T22:18:54.144Z,97003.56
2022-12-23T22:21:24.113Z,96998.16
2022-12-23T22:23:52.116Z,96996.06
2022-12-23T22:26:25.381Z,96992.84
2022-12-23T22:28:54.262Z,96991.44
2022-12-23T22:31:23.515Z,96989.06
2022-12-23T22:33:49.961Z,97009.56
2022-12-23T22:36:17.175Z,97007.00
2022-12-23T22:38:44.013Z,97013.44
2022-12-23T22:41:11.027Z,97011.97
2022-12-23T22:43:38.139Z,97021.81
2022-12-23T22:46:04.994Z,97016.31
2022-12-23T22:48:31.741Z,97025.72
2022-12-23T22:51:06.348Z,97031.47
2022-12-23T22:53:33.712Z,97033.91
2022-12-23T22:56:01.312Z,97035.75
2022-12-23T22:58:28.554Z,97038.97
2022-12-23T23:00:54.996Z,97036.03
2022-12-23T23:03:21.771Z,97048.41
2022-12-23T23:06:06.985Z,97045.13
2022-12-23T23:08:35.420Z,97044.50
2022-12-23T23:11:04.474Z,97050.38
2022-12-23T23:13:33.741Z,97052.06
2022-12-23T23:16:00.704Z,97058.41
2022-12-23T23:18:28.579Z,97059.66
2022-12-23T23:20:55.331Z,97072.91
2022-12-23T23:23:22.089Z,97056.34
2022-12-23T23:25:48.478Z,97063.22
2022-12-23T23:28:15.066Z,97064.66
2022-12-23T23:30:41.916Z,97060.31
2022-12-23T23:33:09.778Z,97064.31
2022-12-23T23:35:36.793Z,97072.28
2022-12-23T23:38:03.403Z,97061.31
2022-12-23T23:40:29.968Z,97064.22
2022-12-23T23:42:56.388Z,97064.25
2022-12-23T23:45:22.862Z,97073.63
2022-12-23T23:47:49.492Z,97078.34
2022-12-23T23:50:16.101Z,97082.03
2022-12-23T23:52:42.956Z,97085.22
2022-12-23T23:55:09.988Z,97078.00
2022-12-23T23:57:36.634Z,97071.84
